createdAt,value
2019-03-27T00:00:57.983Z,18.02
2019-03-27T00:03:26.464Z,20.15
2019-03-27T00:05:54.903Z,19.73
2019-03-27T00:08:23.349Z,24.92
2019-03-27T00:10:51.860Z,21.85
2019-03-27T00:13:20.362Z,22.30
2019-03-27T00:15:48.826Z,19.82
2019-03-27T00:18:17.334Z,20.12
2019-03-27T00:20:45.841Z,19.77
2019-03-27T00:23:15.684Z,17.62
2019-03-27T00:25:44.279Z,20.40
2019-03-27T00:28:13.604Z,18.62
2019-03-27T00:30:42.028Z,16.85
2019-03-27T00:33:10.487Z,15.90
2019-03-27T00:35:38.764Z,18.60
2019-03-27T00:38:07.253Z,15.98
2019-03-27T00:40:35.739Z,16.32
2019-03-27T00:43:04.156Z,15.38
2019-03-27T00:45:32.813Z,13.83
2019-03-27T00:48:09.381Z,12.37
2019-03-27T00:50:39.103Z,13.20
2019-03-27T00:53:07.723Z,15.45
2019-03-27T00:55:36.277Z,12.70
2019-03-27T00:58:04.798Z,16.42
2019-03-27T01:01:04.420Z,18.37
2019-03-27T01:03:32.999Z,15.83
2019-03-27T01:06:01.523Z,14.33
2019-03-27T01:08:29.904Z,14.35
2019-03-27T01:10:58.346Z,12.98
2019-03-27T01:13:26.749Z,11.33
2019-03-27T01:15:55.369Z,15.75
2019-03-27T01:18:24.495Z,14.65
2019-03-27T01:20:52.942Z,15.78
2019-03-27T01:23:21.291Z,13.55
2019-03-27T01:25:50.505Z,11.97
2019-03-27T01:28:18.870Z,13.62
2019-03-27T01:30:47.262Z,12.60
2019-03-27T01:33:15.690Z,12.98
2019-03-27T01:35:44.174Z,17.42
2019-03-27T01:38:12.484Z,15.95
2019-03-27T01:40:40.827Z,19.27
2019-03-27T01:43:09.220Z,17.05
2019-03-27T01:45:37.794Z,20.57
2019-03-27T01:48:06.208Z,18.82
2019-03-27T01:50:42.611Z,19.40
2019-03-27T01:53:10.982Z,19.00
2019-03-27T01:55:39.470Z,13.08
2019-03-27T01:58:07.760Z,14.43
2019-03-27T02:00:36.260Z,15.05
2019-03-27T02:03:05.450Z,17.87
2019-03-27T02:05:34.021Z,61.28
2019-03-27T02:08:02.443Z,55.08
2019-03-27T02:10:31.022Z,48.80
2019-03-27T02:12:59.412Z,33.20
2019-03-27T02:15:29.756Z,30.37
2019-03-27T02:17:58.183Z,21.77
2019-03-27T02:20:26.551Z,18.80
2019-03-27T02:22:55.046Z,23.57
2019-03-27T02:25:23.531Z,34.63
2019-03-27T02:27:51.850Z,24.67
2019-03-27T02:30:20.310Z,24.72
2019-03-27T02:32:48.811Z,16.80
2019-03-27T02:35:17.175Z,13.20
2019-03-27T02:37:45.979Z,16.85
2019-03-27T02:40:14.490Z,13.85
2019-03-27T02:42:42.947Z,14.75
2019-03-27T02:45:13.251Z,12.68
2019-03-27T02:47:41.621Z,9.78
2019-03-27T02:50:10.072Z,11.45
2019-03-27T02:52:40.991Z,13.38
2019-03-27T02:55:09.649Z,9.93
2019-03-27T02:57:37.977Z,9.78
2019-03-27T03:00:08.049Z,11.25
2019-03-27T03:02:36.424Z,12.03
2019-03-27T03:05:06.141Z,10.25
2019-03-27T03:07:34.475Z,11.38
2019-03-27T03:10:03.048Z,9.80
2019-03-27T03:12:31.363Z,8.80
2019-03-27T03:14:59.727Z,11.15
2019-03-27T03:17:28.321Z,9.45
2019-03-27T03:19:56.622Z,8.45
2019-03-27T03:22:25.103Z,7.67
2019-03-27T03:24:53.581Z,13.78
2019-03-27T03:27:22.059Z,8.98
2019-03-27T03:29:50.545Z,12.88
2019-03-27T03:32:19.034Z,12.75
2019-03-27T03:34:47.450Z,10.58
2019-03-27T03:37:15.926Z,12.40
2019-03-27T03:39:44.310Z,10.40
2019-03-27T03:42:12.985Z,12.28
2019-03-27T03:44:41.314Z,10.95
2019-03-27T03:47:09.766Z,10.58
2019-03-27T03:49:38.179Z,7.47
2019-03-27T03:52:06.800Z,12.80
2019-03-27T03:54:35.814Z,11.90
2019-03-27T03:57:04.494Z,7.03
2019-03-27T03:59:35.298Z,9.28
2019-03-27T04:02:04.090Z,11.10
2019-03-27T04:04:34.989Z,10.30
2019-03-27T04:07:03.420Z,10.93
2019-03-27T04:09:32.415Z,9.18
2019-03-27T04:12:01.001Z,13.18
2019-03-27T04:14:29.433Z,10.78
2019-03-27T04:16:57.801Z,11.50
2019-03-27T04:19:26.228Z,9.75
2019-03-27T04:21:54.590Z,10.03
2019-03-27T04:24:23.891Z,10.30
2019-03-27T04:26:52.362Z,9.63
2019-03-27T04:29:21.603Z,15.15
2019-03-27T04:31:49.984Z,13.72
2019-03-27T04:34:18.280Z,12.63
2019-03-27T04:36:47.056Z,13.72
2019-03-27T04:39:15.460Z,13.00
2019-03-27T04:41:44.032Z,16.42
2019-03-27T04:44:13.132Z,16.60
2019-03-27T04:46:43.295Z,21.85
2019-03-27T04:49:11.819Z,18.75
2019-03-27T04:51:40.298Z,25.15
2019-03-27T04:54:09.106Z,28.17
2019-03-27T04:56:37.649Z,28.12
2019-03-27T04:59:05.929Z,26.57
2019-03-27T05:01:35.158Z,28.12
2019-03-27T05:04:04.915Z,28.47
2019-03-27T05:06:35.017Z,29.23
2019-03-27T05:09:04.417Z,30.37
2019-03-27T05:11:32.921Z,35.48
2019-03-27T05:14:02.692Z,28.38
2019-03-27T05:16:31.098Z,28.80
2019-03-27T05:18:59.458Z,23.65
2019-03-27T05:21:27.973Z,24.87
2019-03-27T05:23:56.411Z,22.17
2019-03-27T05:26:24.838Z,27.95
2019-03-27T05:28:59.998Z,24.87
2019-03-27T05:31:28.383Z,32.93
2019-03-27T05:33:56.944Z,29.30
2019-03-27T05:36:25.347Z,34.53
2019-03-27T05:38:54.612Z,32.88
2019-03-27T05:41:22.927Z,29.85
2019-03-27T05:43:52.317Z,23.32
2019-03-27T05:46:20.737Z,29.82
2019-03-27T05:48:49.202Z,30.82
2019-03-27T05:51:17.519Z,24.67
2019-03-27T05:53:46.387Z,24.90
2019-03-27T05:56:14.683Z,25.57
2019-03-27T05:58:43.333Z,24.10
2019-03-27T06:01:11.624Z,27.60
2019-03-27T06:03:40.092Z,25.45
2019-03-27T06:06:08.596Z,26.02
2019-03-27T06:08:37.077Z,28.83
2019-03-27T06:11:05.785Z,26.37
2019-03-27T06:13:34.260Z,24.18
2019-03-27T06:16:03.629Z,25.25
2019-03-27T06:18:32.124Z,22.87
2019-03-27T06:21:00.403Z,20.55
2019-03-27T06:23:28.791Z,23.67
2019-03-27T06:25:57.196Z,20.92
2019-03-27T06:28:26.128Z,20.05
2019-03-27T06:30:54.564Z,23.47
2019-03-27T06:33:22.941Z,25.60
2019-03-27T06:35:51.370Z,22.98
2019-03-27T06:38:19.826Z,21.45
2019-03-27T06:40:48.270Z,21.68
2019-03-27T06:43:16.928Z,27.27
2019-03-27T06:45:48.633Z,20.77
2019-03-27T06:48:26.213Z,26.42
2019-03-27T06:50:51.162Z,19.23
2019-03-27T06:53:20.318Z,21.15
2019-03-27T06:55:49.695Z,16.52
2019-03-27T06:58:18.176Z,15.15
2019-03-27T07:00:46.791Z,14.50
2019-03-27T07:03:15.170Z,20.32
2019-03-27T07:05:43.686Z,13.68
2019-03-27T07:08:11.967Z,15.10
2019-03-27T07:10:40.331Z,17.87
2019-03-27T07:13:08.709Z,13.80
2019-03-27T07:15:37.159Z,13.25
2019-03-27T07:18:05.567Z,14.25
2019-03-27T07:20:34.023Z,15.32
2019-03-27T07:23:02.449Z,17.77
2019-03-27T07:25:30.827Z,11.22
2019-03-27T07:27:59.214Z,11.57
2019-03-27T07:30:27.752Z,13.68
2019-03-27T07:33:02.703Z,14.30
2019-03-27T07:35:31.160Z,16.27
2019-03-27T07:37:59.553Z,19.05
2019-03-27T07:40:28.134Z,11.25
2019-03-27T07:42:56.464Z,15.40
2019-03-27T07:45:25.000Z,14.63
2019-03-27T07:47:53.300Z,17.20
2019-03-27T07:50:22.378Z,13.75
2019-03-27T07:52:50.718Z,14.58
2019-03-27T07:55:20.098Z,14.70
2019-03-27T07:57:48.518Z,10.20
2019-03-27T08:00:17.644Z,12.35
2019-03-27T08:02:45.953Z,10.28
2019-03-27T08:05:14.513Z,7.28
2019-03-27T08:07:43.027Z,9.00
2019-03-27T08:10:11.908Z,14.47
2019-03-27T08:12:41.173Z,7.33
2019-03-27T08:15:10.213Z,10.65
2019-03-27T08:17:38.863Z,8.35
2019-03-27T08:20:07.805Z,7.37
2019-03-27T08:22:36.243Z,11.33
2019-03-27T08:25:05.443Z,9.88
2019-03-27T08:27:33.868Z,10.28
2019-03-27T08:30:02.601Z,14.00
2019-03-27T08:32:31.096Z,7.35
2019-03-27T08:35:11.610Z,6.22
2019-03-27T08:37:40.031Z,6.87
2019-03-27T08:40:10.375Z,9.10
2019-03-27T08:42:39.020Z,8.00
2019-03-27T08:45:08.545Z,6.72
2019-03-27T08:47:37.090Z,6.28
2019-03-27T08:50:06.103Z,8.95
2019-03-27T08:52:34.545Z,9.80
2019-03-27T08:55:03.255Z,8.98
2019-03-27T08:57:31.745Z,6.33
2019-03-27T09:00:00.373Z,7.57
2019-03-27T09:02:30.535Z,7.87
2019-03-27T09:04:58.989Z,10.68
2019-03-27T09:07:27.553Z,8.80
2019-03-27T09:09:56.044Z,8.83
2019-03-27T09:12:24.758Z,8.20
2019-03-27T09:14:53.287Z,9.87
2019-03-27T09:17:21.945Z,9.97
2019-03-27T09:19:50.419Z,9.23
2019-03-27T09:22:18.847Z,8.03
2019-03-27T09:24:47.289Z,6.83
2019-03-27T09:27:15.753Z,6.15
2019-03-27T09:29:44.115Z,5.00
2019-03-27T09:32:12.785Z,5.43
2019-03-27T09:34:41.319Z,5.63
2019-03-27T09:37:21.848Z,5.10
2019-03-27T09:39:50.193Z,5.77
2019-03-27T09:42:18.620Z,5.83
2019-03-27T09:44:47.070Z,5.90
2019-03-27T09:47:15.577Z,6.83
2019-03-27T09:49:49.775Z,6.27
2019-03-27T09:52:14.275Z,9.57
2019-03-27T09:54:42.784Z,8.73
2019-03-27T09:57:11.213Z,7.27
2019-03-27T09:59:39.696Z,9.20
2019-03-27T10:02:08.268Z,7.27
2019-03-27T10:04:36.837Z,9.23
2019-03-27T10:07:05.449Z,5.67
2019-03-27T10:09:34.086Z,9.37
2019-03-27T10:12:02.649Z,6.87
2019-03-27T10:14:31.181Z,7.90
2019-03-27T10:16:59.823Z,9.07
2019-03-27T10:19:28.257Z,5.97
2019-03-27T10:21:56.749Z,7.43
2019-03-27T10:24:25.284Z,5.07
2019-03-27T10:26:53.879Z,5.90
2019-03-27T10:29:22.436Z,4.67
2019-03-27T10:31:51.102Z,5.03
2019-03-27T10:34:19.543Z,7.30
2019-03-27T10:36:48.191Z,6.73
2019-03-27T10:39:18.783Z,4.43
2019-03-27T10:41:47.652Z,6.83
2019-03-27T10:44:17.997Z,5.07
2019-03-27T10:46:46.499Z,3.83
2019-03-27T10:49:14.906Z,4.87
2019-03-27T10:51:43.310Z,5.53
2019-03-27T10:54:12.734Z,5.27
2019-03-27T10:56:41.330Z,13.93
2019-03-27T10:59:09.719Z,11.10
2019-03-27T11:01:38.218Z,10.70
2019-03-27T11:04:06.812Z,18.47
2019-03-27T11:06:35.141Z,11.90
2019-03-27T11:09:07.012Z,7.43
2019-03-27T11:11:35.880Z,9.97
2019-03-27T11:14:04.959Z,9.27
2019-03-27T11:16:33.519Z,11.43
2019-03-27T11:19:02.181Z,15.97
2019-03-27T11:21:30.614Z,12.53
2019-03-27T11:23:59.080Z,8.67
2019-03-27T11:26:27.552Z,13.43
2019-03-27T11:28:56.771Z,12.37
2019-03-27T11:31:25.269Z,12.23
2019-03-27T11:33:54.296Z,9.37
2019-03-27T11:36:23.425Z,13.70
2019-03-27T11:38:51.966Z,13.43
2019-03-27T11:41:20.490Z,11.90
2019-03-27T11:43:54.814Z,12.13
2019-03-27T11:46:19.281Z,11.40
2019-03-27T11:48:47.676Z,7.43
2019-03-27T11:51:16.243Z,8.70
2019-03-27T11:53:45.048Z,8.90
2019-03-27T11:56:13.488Z,8.63
2019-03-27T11:58:42.255Z,6.93
2019-03-27T12:01:10.542Z,4.70
2019-03-27T12:03:38.920Z,4.57
2019-03-27T12:06:07.432Z,5.30
2019-03-27T12:08:35.802Z,3.37
2019-03-27T12:11:05.422Z,4.73
2019-03-27T12:13:33.900Z,5.73
2019-03-27T12:16:02.430Z,4.27
2019-03-27T12:18:32.254Z,8.00
2019-03-27T12:21:01.115Z,5.43
2019-03-27T12:23:29.577Z,7.67
2019-03-27T12:25:58.135Z,6.10
2019-03-27T12:28:26.604Z,4.13
2019-03-27T12:30:55.089Z,6.07
2019-03-27T12:33:23.645Z,5.73
2019-03-27T12:35:52.050Z,7.30
2019-03-27T12:38:20.473Z,4.87
2019-03-27T12:40:48.803Z,4.80
2019-03-27T12:43:17.410Z,4.77
2019-03-27T12:45:45.892Z,6.40
2019-03-27T12:48:14.418Z,5.87
2019-03-27T12:50:44.556Z,6.87
2019-03-27T12:53:13.082Z,8.30
2019-03-27T12:55:41.632Z,4.53
2019-03-27T12:58:11.877Z,5.37
2019-03-27T13:00:41.292Z,7.23
2019-03-27T13:03:09.839Z,4.70
2019-03-27T13:05:38.286Z,5.00
2019-03-27T13:08:06.798Z,8.83
2019-03-27T13:10:35.392Z,4.90
2019-03-27T13:13:03.911Z,2.50
2019-03-27T13:15:33.596Z,4.07
2019-03-27T13:18:02.271Z,3.47
2019-03-27T13:20:30.792Z,3.97
2019-03-27T13:22:59.260Z,5.17
2019-03-27T13:25:28.469Z,4.17
2019-03-27T13:27:56.810Z,3.93
2019-03-27T13:30:25.300Z,3.27
2019-03-27T13:32:53.689Z,3.60
2019-03-27T13:35:22.874Z,2.53
2019-03-27T13:37:51.333Z,6.30
2019-03-27T13:40:20.153Z,5.87
2019-03-27T13:42:49.042Z,5.33
2019-03-27T13:45:18.023Z,5.10
2019-03-27T13:47:46.570Z,9.00
2019-03-27T13:50:17.411Z,4.43
2019-03-27T13:52:45.763Z,6.47
2019-03-27T13:55:14.468Z,3.37
2019-03-27T13:57:43.423Z,3.17
2019-03-27T14:00:13.714Z,5.00
2019-03-27T14:02:42.509Z,4.67
2019-03-27T14:05:11.785Z,3.90
2019-03-27T14:07:40.324Z,9.77
2019-03-27T14:10:09.301Z,7.17
2019-03-27T14:12:37.864Z,6.10
2019-03-27T14:15:07.808Z,7.20
2019-03-27T14:17:42.687Z,5.63
2019-03-27T14:20:11.709Z,5.83
2019-03-27T14:22:40.259Z,6.87
2019-03-27T14:25:10.949Z,7.30
2019-03-27T14:27:39.357Z,7.73
2019-03-27T14:30:09.245Z,5.27
2019-03-27T14:32:37.841Z,7.23
2019-03-27T14:35:06.540Z,9.10
2019-03-27T14:37:35.112Z,4.67
2019-03-27T14:40:04.334Z,4.63
2019-03-27T14:42:32.745Z,4.67
2019-03-27T14:45:01.348Z,5.90
2019-03-27T14:47:29.863Z,7.93
2019-03-27T14:49:58.252Z,5.60
2019-03-27T14:52:26.649Z,10.97
2019-03-27T14:54:55.148Z,5.77
2019-03-27T14:57:23.482Z,7.07
2019-03-27T14:59:51.923Z,7.00
2019-03-27T15:02:20.416Z,6.33
2019-03-27T15:04:48.852Z,6.53
2019-03-27T15:07:17.350Z,8.70
2019-03-27T15:09:45.744Z,8.40
2019-03-27T15:12:14.229Z,8.33
2019-03-27T15:14:42.619Z,7.50
2019-03-27T15:17:11.036Z,9.17
2019-03-27T15:19:39.534Z,6.73
2019-03-27T15:22:21.463Z,7.20
2019-03-27T15:24:38.604Z,8.50
2019-03-27T15:27:06.950Z,8.57
2019-03-27T15:29:35.280Z,5.53
2019-03-27T15:32:03.860Z,9.43
2019-03-27T15:34:32.334Z,9.70
2019-03-27T15:37:00.837Z,8.43
2019-03-27T15:39:29.147Z,6.93
2019-03-27T15:41:58.366Z,7.47
2019-03-27T15:44:27.472Z,6.93
2019-03-27T15:46:55.869Z,6.27
2019-03-27T15:49:24.298Z,4.63
2019-03-27T15:51:53.093Z,5.43
2019-03-27T15:54:23.462Z,8.57
2019-03-27T15:56:51.940Z,4.83
2019-03-27T15:59:20.520Z,6.07
2019-03-27T16:01:49.121Z,6.00
2019-03-27T16:04:17.652Z,8.33
2019-03-27T16:06:46.127Z,7.83
2019-03-27T16:09:15.817Z,10.60
2019-03-27T16:11:44.386Z,8.73
2019-03-27T16:14:13.552Z,7.97
2019-03-27T16:16:42.224Z,7.47
2019-03-27T16:19:11.698Z,9.03
2019-03-27T16:21:44.472Z,8.77
2019-03-27T16:24:12.910Z,7.47
2019-03-27T16:26:41.520Z,9.33
2019-03-27T16:29:10.546Z,8.97
2019-03-27T16:31:39.538Z,12.33
2019-03-27T16:34:08.095Z,10.60
2019-03-27T16:36:36.565Z,11.47
2019-03-27T16:39:05.862Z,9.70
2019-03-27T16:41:34.404Z,12.70
2019-03-27T16:44:03.004Z,11.37
2019-03-27T16:46:31.663Z,9.50
2019-03-27T16:49:00.154Z,13.90
2019-03-27T16:51:29.249Z,10.70
2019-03-27T16:53:57.629Z,28.57
2019-03-27T16:56:26.368Z,13.30
2019-03-27T16:58:55.207Z,15.23
2019-03-27T17:01:24.418Z,12.93
2019-03-27T17:03:53.007Z,12.43
2019-03-27T17:06:21.734Z,36.23
2019-03-27T17:08:50.386Z,27.17
2019-03-27T17:11:18.696Z,32.37
2019-03-27T17:13:47.170Z,31.37
2019-03-27T17:16:15.694Z,25.57
2019-03-27T17:18:44.216Z,23.30
2019-03-27T17:21:12.569Z,9.73
2019-03-27T17:23:42.578Z,9.97
2019-03-27T17:26:11.099Z,11.23
2019-03-27T17:28:39.679Z,11.07
2019-03-27T17:31:08.093Z,11.17
2019-03-27T17:33:36.607Z,8.73
2019-03-27T17:36:05.847Z,8.07
2019-03-27T17:38:34.327Z,8.37
2019-03-27T17:41:02.871Z,10.00
2019-03-27T17:43:31.341Z,11.30
2019-03-27T17:46:00.834Z,16.33
2019-03-27T17:48:29.281Z,12.37
2019-03-27T17:50:58.225Z,12.57
2019-03-27T17:53:31.932Z,12.83
2019-03-27T17:55:56.980Z,12.80
2019-03-27T17:58:25.524Z,12.53
2019-03-27T18:00:57.146Z,12.53
2019-03-27T18:03:25.626Z,15.67
2019-03-27T18:05:54.168Z,13.90
2019-03-27T18:08:22.773Z,13.30
2019-03-27T18:10:51.304Z,16.17
2019-03-27T18:13:19.786Z,16.97
2019-03-27T18:15:48.285Z,18.53
2019-03-27T18:18:16.824Z,17.87
2019-03-27T18:20:45.227Z,21.10
2019-03-27T18:23:14.488Z,20.33
2019-03-27T18:25:42.936Z,18.20
2019-03-27T18:28:11.412Z,16.80
2019-03-27T18:30:40.598Z,19.87
2019-03-27T18:33:09.096Z,16.27
2019-03-27T18:35:37.523Z,17.07
2019-03-27T18:38:06.095Z,15.20
2019-03-27T18:40:34.514Z,15.80
2019-03-27T18:43:03.624Z,16.23
2019-03-27T18:45:31.937Z,16.37
2019-03-27T18:48:00.451Z,18.63
2019-03-27T18:50:28.911Z,16.37
2019-03-27T18:52:57.263Z,15.97
2019-03-27T18:55:27.130Z,18.10
2019-03-27T18:58:00.302Z,21.27
2019-03-27T19:00:27.833Z,20.97
2019-03-27T19:02:56.336Z,23.03
2019-03-27T19:05:24.933Z,22.67
2019-03-27T19:07:53.433Z,22.43
2019-03-27T19:10:22.312Z,20.70
2019-03-27T19:12:51.014Z,22.80
2019-03-27T19:15:21.279Z,24.33
2019-03-27T19:17:49.940Z,23.17
2019-03-27T19:20:18.455Z,23.57
2019-03-27T19:22:46.807Z,22.40
2019-03-27T19:25:15.307Z,33.07
2019-03-27T19:27:43.755Z,21.90
2019-03-27T19:30:12.855Z,20.73
2019-03-27T19:32:41.256Z,20.63
2019-03-27T19:35:09.900Z,18.73
2019-03-27T19:37:38.347Z,17.43
2019-03-27T19:40:07.408Z,16.87
2019-03-27T19:42:36.620Z,21.63
2019-03-27T19:45:06.266Z,19.33
2019-03-27T19:47:34.681Z,20.00
2019-03-27T19:50:03.540Z,18.63
2019-03-27T19:52:32.165Z,18.07
2019-03-27T19:55:00.804Z,19.20
2019-03-27T19:57:29.399Z,18.87
2019-03-27T19:59:57.908Z,17.67
2019-03-27T20:02:26.354Z,19.00
2019-03-27T20:04:56.870Z,22.20
2019-03-27T20:07:35.329Z,17.43
2019-03-27T20:09:55.871Z,18.00
2019-03-27T20:12:24.408Z,19.10
2019-03-27T20:14:52.792Z,18.00
2019-03-27T20:17:21.196Z,18.60
2019-03-27T20:19:49.752Z,19.97
2019-03-27T20:22:18.143Z,20.20
2019-03-27T20:24:47.321Z,20.53
2019-03-27T20:27:15.852Z,19.83
2019-03-27T20:29:46.620Z,22.13
2019-03-27T20:32:15.403Z,14.07
2019-03-27T20:34:43.860Z,15.67
2019-03-27T20:37:12.178Z,17.17
2019-03-27T20:39:42.688Z,18.33
2019-03-27T20:42:10.772Z,20.67
2019-03-27T20:44:39.229Z,15.60
2019-03-27T20:47:07.561Z,18.13
2019-03-27T20:49:35.902Z,17.30
2019-03-27T20:52:04.243Z,18.33
2019-03-27T20:54:32.624Z,20.13
2019-03-27T20:57:01.616Z,16.87
2019-03-27T20:59:30.113Z,17.73
2019-03-27T21:01:58.583Z,19.50
2019-03-27T21:04:26.986Z,14.90
2019-03-27T21:06:55.407Z,17.50
2019-03-27T21:09:26.263Z,17.20
2019-03-27T21:11:56.173Z,17.60
2019-03-27T21:14:24.608Z,16.07
2019-03-27T21:16:53.097Z,19.20
2019-03-27T21:19:21.537Z,18.87
2019-03-27T21:21:49.873Z,21.87
2019-03-27T21:24:18.295Z,14.23
2019-03-27T21:26:46.723Z,13.47
2019-03-27T21:29:16.227Z,15.33
2019-03-27T21:31:44.856Z,16.50
2019-03-27T21:34:13.427Z,16.13
2019-03-27T21:36:42.066Z,16.30
2019-03-27T21:39:10.546Z,15.53
2019-03-27T21:41:38.915Z,18.23
2019-03-27T21:44:07.442Z,16.83
2019-03-27T21:46:36.500Z,17.40
2019-03-27T21:49:04.931Z,17.37
2019-03-27T21:51:33.445Z,17.43
2019-03-27T21:54:02.487Z,18.00
2019-03-27T21:56:31.943Z,17.83
2019-03-27T21:59:02.533Z,19.83
2019-03-27T22:01:30.866Z,16.73
2019-03-27T22:03:59.391Z,19.10
2019-03-27T22:06:30.399Z,14.73
2019-03-27T22:08:59.516Z,21.63
2019-03-27T22:11:27.963Z,21.17
2019-03-27T22:13:56.393Z,20.23
2019-03-27T22:16:24.751Z,19.80
2019-03-27T22:18:53.233Z,23.10
2019-03-27T22:21:21.738Z,18.23
2019-03-27T22:23:50.092Z,33.47
2019-03-27T22:26:18.700Z,18.70
2019-03-27T22:28:47.163Z,20.63
2019-03-27T22:31:16.262Z,22.03
2019-03-27T22:33:44.664Z,23.70
2019-03-27T22:36:13.354Z,24.97
2019-03-27T22:38:41.794Z,21.77
2019-03-27T22:41:10.185Z,22.30
2019-03-27T22:43:38.573Z,20.17
2019-03-27T22:46:06.905Z,25.60
2019-03-27T22:48:35.305Z,22.40
2019-03-27T22:51:03.818Z,22.50
2019-03-27T22:53:32.221Z,20.20
2019-03-27T22:56:00.617Z,24.73
2019-03-27T22:58:29.240Z,22.43
2019-03-27T23:00:58.092Z,23.30
2019-03-27T23:03:26.724Z,21.67
2019-03-27T23:05:55.181Z,21.70
2019-03-27T23:08:23.730Z,23.00
2019-03-27T23:10:52.201Z,25.13
2019-03-27T23:13:20.832Z,25.47
2019-03-27T23:15:49.506Z,26.93
2019-03-27T23:18:18.109Z,25.97
2019-03-27T23:20:46.602Z,28.60
2019-03-27T23:23:15.137Z,23.67
2019-03-27T23:25:43.608Z,23.43
2019-03-27T23:28:12.122Z,23.77
2019-03-27T23:30:40.673Z,23.00
2019-03-27T23:33:09.202Z,24.93
2019-03-27T23:35:37.698Z,23.10
2019-03-27T23:38:06.360Z,23.50
2019-03-27T23:40:36.379Z,22.70
2019-03-27T23:43:04.773Z,26.77
2019-03-27T23:45:33.098Z,21.70
2019-03-27T23:48:01.504Z,23.00
2019-03-27T23:50:29.816Z,25.23
2019-03-27T23:52:58.258Z,26.80
2019-03-27T23:55:26.578Z,31.40
2019-03-27T23:57:55.174Z,25.23
